Time;durP1;ratioP1;P1;durP2;ratioP2;P2;SDS_P1;SDS_P2;PMS_P1;PMS_P2;Temp;Humidity;BMP_temperature;BMP_pressure;BME280_temperature;BME280_humidity;BME280_pressure;Samples;Min_cycle;Max_cycle;Signal;HPM_P1;HPM_P2
2022/03/23 00:00:54;;;;;;;;;;;;;;;;;;6218543;23;19906;-80
2022/03/23 00:03:22;;;;;;;;;;;;;;;;;;6244114;23;19916;-79
2022/03/23 00:05:50;;;;;;;;;;;;;;;;;;6244653;23;19951;-78
2022/03/23 00:08:21;;;;;;;;;;;205.30;1126.40;;;;;;6218590;23;19900;-80
2022/03/23 00:10:47;;;;;;;;;;;205.20;1152.00;;;;;;6244098;23;19907;-79
2022/03/23 00:13:28;;;;;;;;;;;205.10;1152.00;;;;;;6217290;22;19971;-79
2022/03/23 00:15:54;;;;;;;;;;;204.90;1177.60;;;;;;6215295;23;19907;-79
2022/03/23 00:18:31;;;;;;;;;;;180.00;1203.20;;;;;;6243913;22;19895;-79
2022/03/23 00:20:57;;;;;;;;;;;180.00;1228.80;;;;;;6243273;22;19904;-79
2022/03/23 00:23:22;;;;;;;;;;;180.00;1203.20;;;;;;6243939;23;19911;-79
2022/03/23 00:25:51;;;;;;;;;;;180.00;1228.80;;;;;;6243479;22;19919;-79
2022/03/23 00:28:19;;;;;;;;;;;180.10;1228.80;;;;;;6259324;22;19916;-78
2022/03/23 00:30:46;;;;;;;;;;;204.80;1228.80;;;;;;6248350;22;19891;-80
2022/03/23 00:33:11;;;;;;;;;;;204.80;1203.20;;;;;;6248708;23;19915;-78
2022/03/23 00:35:37;;;;;;;;;;;204.90;1228.80;;;;;;6274558;23;19899;-79
2022/03/23 00:38:03;;;;;;;;;;;204.80;1203.20;;;;;;6247865;22;19899;-79
2022/03/23 00:40:29;;;;;;;;;;;180.10;1228.80;;;;;;6274846;23;19883;-80
2022/03/23 00:42:56;;;;;;;;;;;180.10;1254.40;;;;;;6248756;23;19906;-80
2022/03/23 00:45:21;;;;;;;;;;;179.90;1254.40;;;;;;6248289;23;19923;-79
2022/03/23 00:47:48;;;;;;;;;;;179.50;1305.60;;;;;;6248369;23;19906;-80
2022/03/23 00:50:14;;;;;;;;;;;179.50;1280.00;;;;;;6248438;23;19914;-80
2022/03/23 00:52:41;;;;;;;;;;;179.50;1228.80;;;;;;6274419;22;19921;-78
2022/03/23 00:55:09;;;;;;;;;;;179.40;1254.40;;;;;;6248657;23;19904;-80
2022/03/23 00:57:35;;;;;;;;;;;179.50;1254.40;;;;;;6273425;22;19899;-80
2022/03/23 01:00:03;;;;;;;;;;;179.50;1254.40;;;;;;6247909;23;19883;-79
2022/03/23 01:02:29;;;;;;;;;;;179.50;1254.40;;;;;;6274098;22;19911;-79
2022/03/23 01:04:54;;;;;;;;;;;179.30;1254.40;;;;;;6247864;23;19883;-77
2022/03/23 01:07:20;;;;;;;;;;;;;;;;;;6247296;23;19927;-80
2022/03/23 01:09:46;;;;;;;;;;;;;;;;;;6247855;23;19915;-79
2022/03/23 01:12:12;;;;;;;;;;;;;;;;;;6243688;22;19934;-80
2022/03/23 01:14:38;;;;;;;;;;;;;;;;;;6243621;23;19900;-81
2022/03/23 01:17:06;;;;;;;;;;;;;;;;;;6217912;23;19904;-80
2022/03/23 01:19:32;;;;;;;;;;;;;;;;;;6243938;22;19920;-79
2022/03/23 01:21:58;;;;;;;;;;;;;;;;;;6217950;23;19891;-78
2022/03/23 01:24:24;;;;;;;;;;;;;;;;;;6243521;23;19886;-79
2022/03/23 01:26:50;;;;;;;;;;;;;;;;;;6243718;22;19895;-80
2022/03/23 01:29:25;;;;;;;;;;;;;;;;;;6216459;23;19900;-78
2022/03/23 01:31:52;;;;;;;;;;;;;;;;;;6253937;22;20314;-76
2022/03/23 01:34:18;;;;;;;;;;;;;;;;;;6273790;22;19900;-79
2022/03/23 01:36:44;;;;;;;;;;;;;;;;;;6248267;23;19900;-79
2022/03/23 01:39:10;;;;;;;;;;;;;;;;;;6249629;23;19936;-80
2022/03/23 01:41:36;;;;;;;;;;;;;;;;;;6250031;22;19911;-80
2022/03/23 01:44:02;;;;;;;;;;;;;;;;;;6248496;23;19896;-77
2022/03/23 01:46:28;;;;;;;;;;;;;;;;;;6238538;22;19927;-77
2022/03/23 01:48:54;;;;;;;;;;;;;;;;;;6241802;22;20280;-76
2022/03/23 01:51:20;;;;;;;;;;;;;;;;;;6241226;23;19962;-77
2022/03/23 01:53:46;;;;;;;;;;;;;;;;;;6264543;22;19900;-79
2022/03/23 01:56:12;;;;;;;;;;;;;;;;;;6244937;22;19904;-79
2022/03/23 01:58:38;;;;;;;;;;;;;;;;;;6253012;22;19919;-78
2022/03/23 02:01:04;;;;;;;;;;;;;;;;;;6243553;22;19900;-77
2022/03/23 02:03:30;;;;;;;;;;;;;;;;;;6245157;23;19926;-78
2022/03/23 02:05:56;;;;;;;;;;;;;;;;;;6244801;22;19895;-80
2022/03/23 02:08:22;;;;;;;;;;;;;;;;;;6245468;22;19928;-78
2022/03/23 02:10:48;;;;;;;;;;;;;;;;;;6219150;23;19943;-80
2022/03/23 02:13:14;;;;;;;;;;;;;;;;;;6245783;23;19923;-77
2022/03/23 02:15:40;;;;;;;;;;;;;;;;;;6245095;22;19923;-79
2022/03/23 02:18:06;;;;;;;;;;;;;;;;;;6218996;23;19923;-80
2022/03/23 02:20:32;;;;;;;;;;;;;;;;;;6245343;23;19940;-80
2022/03/23 02:22:58;;;;;;;;;;;;;;;;;;6219125;23;19927;-79
2022/03/23 02:25:25;;;;;;;;;;;;;;;;;;6245578;22;19907;-80
2022/03/23 02:27:51;;;;;;;;;;;;;;;;;;6219631;22;19923;-77
2022/03/23 02:30:17;;;;;;;;;;;;;;;;;;6219262;23;19883;-79
2022/03/23 02:32:43;;;;;;;;;;;;;;;;;;6219076;23;19896;-80
2022/03/23 02:35:28;;;;;;;;;;;;;;;;;;6218681;22;19892;-80
2022/03/23 02:38:14;;;;;;;;;;;;;;;;;;6244470;22;19906;-78
2022/03/23 02:40:41;;;;;;;;;;;;;;;;;;6245119;23;19900;-79
2022/03/23 02:43:07;;;;;;;;;;;;;;;;;;6219293;23;19943;-80
2022/03/23 02:45:33;;;;;;;;;;;;;;;;;;6245248;23;19903;-78
2022/03/23 02:47:59;;;;;;;;;;;;;;;;;;6219037;23;20193;-79
2022/03/23 02:50:26;;;;;;;;;;;;;;;;;;6218929;23;19888;-79
2022/03/23 03:03:51;;;;;;;;;;;;;;;;;;6244962;22;19890;-77
2022/03/23 03:06:17;;;;;;;;;;;;;;;;;;6245099;22;19888;-79
2022/03/23 03:08:48;;;;;;;;;;;;;;;;;;6219142;23;19927;-79
2022/03/23 03:11:17;;;;;;;;;;;;;;;;;;6244683;22;19908;-79
2022/03/23 03:13:48;;;;;;;;;;;;;;;;;;6218983;23;19908;-80
2022/03/23 03:16:31;;;;;;;;;;;154.00;1356.80;;;;;;6251276;22;19914;-80
2022/03/23 03:18:57;;;;;;;;;;;153.70;1382.40;;;;;;6275172;23;19899;-79
2022/03/23 03:21:23;;;;;;;;;;;128.90;1356.80;;;;;;6249344;22;19955;-79
2022/03/23 03:23:48;;;;;;;;;;;128.90;1382.40;;;;;;6275383;23;19884;-80
2022/03/23 03:26:15;;;;;;;;;;;128.90;1408.00;;;;;;6275376;22;19947;-79
2022/03/23 03:28:41;;;;;;;;;;;128.90;1408.00;;;;;;6249063;23;19899;-80
2022/03/23 03:31:11;;;;;;;;;;;128.90;1382.40;;;;;;6274997;23;19934;-78
2022/03/23 03:33:41;;;;;;;;;;;128.90;1382.40;;;;;;6246083;22;19887;-80
2022/03/23 03:36:11;;;;;;;;;;;128.80;1356.80;;;;;;6248912;23;19953;-79
2022/03/23 03:38:43;;;;;;;;;;;128.80;1382.40;;;;;;6248241;22;19911;-79
2022/03/23 03:41:09;;;;;;;;;;;128.80;1408.00;;;;;;6249095;23;19888;-79
2022/03/23 03:43:35;;;;;;;;;;;;;;;;;;6249161;23;19888;-78
2022/03/23 03:46:07;;;;;;;;;;;;;;;;;;6275365;22;19909;-78
2022/03/23 03:48:36;;;;;;;;;;;;;;;;;;6249329;22;19895;-79
2022/03/23 03:51:02;;;;;;;;;;;;;;;;;;6274955;23;19934;-79
2022/03/23 03:53:30;;;;;;;;;;;;;;;;;;6249100;22;19904;-80
2022/03/23 03:55:56;;;;;;;;;;;;;;;;;;6274502;22;19922;-80
2022/03/23 03:58:22;;;;;;;;;;;;;;;;;;6275401;22;19943;-79
2022/03/23 04:00:48;;;;;;;;;;;;;;;;;;6248896;23;19899;-79
2022/03/23 04:03:14;;;;;;;;;;;;;;;;;;6249326;23;19900;-79
2022/03/23 04:05:40;;;;;;;;;;;128.10;1356.80;;;;;;6249454;22;19918;-79
2022/03/23 04:08:06;;;;;;;;;;;128.10;1382.40;;;;;;6275451;22;19900;-80
2022/03/23 04:10:31;;;;;;;;;;;128.10;1382.40;;;;;;6249014;22;20267;-80
2022/03/23 04:13:03;;;;;;;;;;;128.00;1382.40;;;;;;6275015;22;19911;-80
2022/03/23 04:15:30;;;;;;;;;;;103.30;1356.80;;;;;;6275254;22;19933;-84
2022/03/23 04:18:28;;;;;;;;;;;128.00;1433.60;;;;;;6249420;23;19887;-80
2022/03/23 04:21:14;;;;;;;;;;;128.00;1408.00;;;;;;6182810;23;19908;-80
2022/03/23 04:23:57;;;;;;;;;;;128.00;1382.40;;;;;;6157800;23;19895;-80
2022/03/23 04:26:24;;;;;;;;;;;103.30;1382.40;;;;;;6241025;22;19923;-79
2022/03/23 04:28:50;;;;;;;;;;;128.00;1433.60;;;;;;6248970;22;19931;-80
2022/03/23 04:31:16;;;;;;;;;;;128.00;1408.00;;;;;;6247931;22;19915;-81
2022/03/23 04:33:51;;;;;;;;;;;103.30;1408.00;;;;;;5118518;27;19920;-79
2022/03/23 04:36:17;;;;;;;;;;;103.30;1408.00;;;;;;5118127;28;20025;-79
2022/03/23 04:38:43;;;;;;;;;;;103.30;1382.40;;;;;;5116202;28;20367;-79
2022/03/23 04:41:08;;;;;;;;;;;103.30;1382.40;;;;;;5117245;28;19961;-79
2022/03/23 04:43:35;;;;;;;;;;;103.10;1433.60;;;;;;5116207;28;20372;-78
2022/03/23 04:46:01;;;;;;;;;;;103.20;1408.00;;;;;;5115322;28;19970;-79
2022/03/23 04:48:26;;;;;;;;;;;103.20;1408.00;;;;;;5115022;28;19912;-79
2022/03/23 04:50:52;;;;;;;;;;;103.20;1433.60;;;;;;5116929;28;19908;-79
2022/03/23 04:53:18;;;;;;;;;;;103.10;1433.60;;;;;;5116846;28;20011;-78
2022/03/23 04:55:44;;;;;;;;;;;103.00;1408.00;;;;;;5115148;28;19919;-79
2022/03/23 04:58:09;;;;;;;;;;;103.10;1408.00;;;;;;5115559;28;19915;-79
2022/03/23 05:00:35;;;;;;;;;;;103.00;1408.00;;;;;;5116167;28;19912;-78
2022/03/23 05:03:01;;;;;;;;;;;103.10;1408.00;;;;;;5116276;28;20368;-78
2022/03/23 05:05:27;;;;;;;;;;;103.10;1408.00;;;;;;5115018;28;19908;-78
2022/03/23 05:07:53;;;;;;;;;;;103.10;1433.60;;;;;;5114625;28;19965;-79
2022/03/23 05:10:19;;;;;;;;;;;103.10;1433.60;;;;;;5115746;28;20288;-78
2022/03/23 05:12:45;;;;;;;;;;;103.20;1408.00;;;;;;5114620;28;19916;-78
2022/03/23 05:15:13;;;;;;;;;;;103.30;1408.00;;;;;;5116134;28;19908;-79
2022/03/23 05:17:40;;;;;;;;;;;103.30;1408.00;;;;;;5115676;28;20451;-80
2022/03/23 05:20:07;;;;;;;;;;;128.00;1433.60;;;;;;5116346;28;19912;-78
2022/03/23 05:22:33;;;;;;;;;;;128.00;1459.20;;;;;;5115284;28;19908;-79
2022/03/23 05:24:59;;;;;;;;;;;128.20;1433.60;;;;;;5114762;28;19908;-78
2022/03/23 05:27:24;;;;;;;;;;;128.10;1433.60;;;;;;5111911;28;20003;-77
2022/03/23 05:29:50;;;;;;;;;;;128.10;1433.60;;;;;;5114098;28;19908;-78
2022/03/23 05:32:19;;;;;;;;;;;128.30;1433.60;;;;;;5116662;28;19971;-79
2022/03/23 05:34:45;;;;;;;;;;;128.30;1433.60;;;;;;5117352;28;19908;-80
2022/03/23 05:37:11;;;;;;;;;;;128.50;1433.60;;;;;;5114252;28;20360;-77
2022/03/23 05:39:38;;;;;;;;;;;128.60;1408.00;;;;;;5111457;28;19908;-76
2022/03/23 05:42:04;;;;;;;;;;;128.70;1433.60;;;;;;5110984;28;19919;-76
2022/03/23 05:44:29;;;;;;;;;;;128.80;1408.00;;;;;;5101752;28;19908;-77
2022/03/23 05:46:55;;;;;;;;;;;128.80;1408.00;;;;;;5099811;28;19909;-77
2022/03/23 05:49:22;;;;;;;;;;;128.90;1408.00;;;;;;5098723;28;20265;-78
2022/03/23 05:51:48;;;;;;;;;;;153.60;1459.20;;;;;;5105073;28;20288;-77
2022/03/23 05:54:13;;;;;;;;;;;153.60;1433.60;;;;;;5102105;28;19938;-77
2022/03/23 05:56:39;;;;;;;;;;;153.70;1433.60;;;;;;5098961;28;20369;-78
2022/03/23 05:59:05;;;;;;;;;;;153.90;1459.20;;;;;;5099247;28;20368;-77
2022/03/23 06:01:32;;;;;;;;;;;154.00;1484.80;;;;;;5099126;28;20276;-77
2022/03/23 06:03:58;;;;;;;;;;;;;;;;;;5099427;28;19908;-77
2022/03/23 06:06:26;;;;;;;;;;;;;;;;;;5101138;28;19930;-77
2022/03/23 06:08:52;;;;;;;;;;;;;;;;;;5100664;28;19908;-77
2022/03/23 06:11:21;;;;;;;;;;;;;;;;;;5100579;28;20003;-77
2022/03/23 06:13:47;;;;;;;;;;;;;;;;;;5100715;28;20365;-77
2022/03/23 06:16:13;;;;;;;;;;;;;;;;;;5098702;28;19908;-77
2022/03/23 06:18:40;;;;;;;;;;;179.50;1408.00;;;;;;5099452;28;19909;-79
2022/03/23 06:21:15;;;;;;;;;;;179.40;1587.20;;;;;;5111243;28;19938;-78
2022/03/23 06:23:40;;;;;;;;;;;179.40;1408.00;;;;;;5109193;28;19946;-77
2022/03/23 06:26:06;;;;;;;;;;;179.50;1408.00;;;;;;5097077;28;19912;-77
2022/03/23 06:28:32;;;;;;;;;;;179.50;1459.20;;;;;;5096517;28;20351;-77
2022/03/23 06:30:59;;;;;;;;;;;179.70;1433.60;;;;;;5097579;28;19951;-77
2022/03/23 06:33:24;;;;;;;;;;;;;;;;;;5095587;28;19985;-77
2022/03/23 06:35:51;;;;;;;;;;;;;;;;;;5095008;28;20357;-79
2022/03/23 06:38:17;;;;;;;;;;;;;;;;;;5095293;28;20307;-77
2022/03/23 06:40:43;;;;;;;;;;;;;;;;;;5095344;28;19908;-78
2022/03/23 06:43:09;;;;;;;;;;;;;;;;;;5095523;28;19916;-78
2022/03/23 06:45:40;;;;;;;;;;;;;;;;;;5096976;28;19919;-82
2022/03/23 06:48:07;;;;;;;;;;;;;;;;;;5097599;28;19916;-84
2022/03/23 06:50:37;;;;;;;;;;;;;;;;;;5099323;28;19908;-78
2022/03/23 06:53:03;;;;;;;;;;;;;;;;;;5095823;28;20406;-78
2022/03/23 06:55:29;;;;;;;;;;;;;;;;;;5093213;28;19912;-78
2022/03/23 06:57:55;;;;;;;;;;;;;;;;;;5095065;28;20368;-78
2022/03/23 07:00:21;;;;;;;;;;;;;;;;;;5094150;28;19954;-77
2022/03/23 07:02:47;;;;;;;;;;;;;;;;;;5095495;28;19908;-77
2022/03/23 07:05:13;;;;;;;;;;;;;;;;;;5093849;28;20379;-80
2022/03/23 07:07:38;;;;;;;;;;;;;;;;;;5093905;28;20333;-85
2022/03/23 07:10:04;;;;;;;;;;;;;;;;;;5095386;28;19912;-78
2022/03/23 07:12:30;;;;;;;;;;;;;;;;;;5093862;28;19994;-79
2022/03/23 07:14:56;;;;;;;;;;;;;;;;;;5095130;28;20345;-77
2022/03/23 07:17:23;;;;;;;;;;;231.30;1305.60;;;;;;5093916;28;20403;-78
2022/03/23 07:19:49;;;;;;;;;;;231.20;1356.80;;;;;;5095141;28;19908;-77
2022/03/23 07:22:15;;;;;;;;;;;;;;;;;;5093978;28;20378;-82
2022/03/23 07:24:41;;;;;;;;;;;;;;;;;;5093958;28;19908;-79
2022/03/23 07:27:07;;;;;;;;;;;;;;;;;;5094613;28;20277;-78
2022/03/23 07:29:35;;;;;;;;;;;;;;;;;;5094698;28;19912;-79
2022/03/23 07:32:01;;;;;;;;;;;;;;;;;;5094760;28;19920;-81
2022/03/23 07:34:27;;;;;;;;;;;;;;;;;;5094763;28;19908;-78
2022/03/23 07:36:53;;;;;;;;;;;;;;;;;;5094853;28;19908;-78
2022/03/23 07:39:25;;;;;;;;;;;;;;;;;;5094679;28;20011;-77
2022/03/23 07:41:52;;;;;;;;;;;;;;;;;;5093446;28;19908;-81
2022/03/23 07:44:18;;;;;;;;;;;;;;;;;;5093399;28;19951;-78
2022/03/23 07:46:44;;;;;;;;;;;;;;;;;;5094642;28;19919;-78
2022/03/23 07:49:09;;;;;;;;;;;307.20;1305.60;;;;;;5094771;28;19908;-82
2022/03/23 07:51:35;;;;;;;;;;;307.40;1280.00;;;;;;5093059;28;20002;-77
2022/03/23 07:54:01;;;;;;;;;;;;;;;;;;5092935;28;19916;-80
2022/03/23 07:56:27;;;;;;;;;;;;;;;;;;5093270;28;19908;-78
2022/03/23 07:58:53;;;;;;;;;;;;;;;;;;5094598;28;20349;-77
2022/03/23 08:01:18;;;;;;;;;;;333.50;1152.00;;;;;;5093076;28;19931;-77
2022/03/23 08:03:44;;;;;;;;;;;333.50;1152.00;;;;;;5094325;28;19909;-77
2022/03/23 08:06:10;;;;;;;;;;;358.40;1100.80;;;;;;5092921;28;19962;-79
2022/03/23 08:08:35;;;;;;;;;;;358.80;1100.80;;;;;;5094067;28;20382;-79
2022/03/23 08:11:01;;;;;;;;;;;358.90;1075.20;;;;;;5094236;28;19908;-78
2022/03/23 08:13:26;;;;;;;;;;;359.10;1075.20;;;;;;5094123;28;19916;-77
2022/03/23 08:15:52;;;;;;;;;;;384.10;1024.00;;;;;;5092909;28;19909;-81
2022/03/23 08:18:21;;;;;;;;;;;435.50;998.40;;;;;;5092662;28;19912;-79
2022/03/23 08:20:49;;;;;;;;;;;486.50;896.00;;;;;;5093833;28;19987;-76
2022/03/23 08:23:15;;;;;;;;;;;512.80;768.00;;;;;;5093452;28;19943;-78
2022/03/23 08:25:42;;;;;;;;;;;563.60;793.60;;;;;;5093704;28;19944;-78
2022/03/23 08:28:09;;;;;;;;;;;589.10;716.80;;;;;;5092550;28;19913;-78
2022/03/23 08:30:35;;;;;;;;;;;614.70;742.40;;;;;;5094004;28;20287;-77
2022/03/23 08:33:02;;;;;;;;;;;640.20;691.20;;;;;;5092502;28;19989;-77
2022/03/23 08:35:29;;;;;;;;;;;665.80;665.60;;;;;;5092580;28;20352;-75
2022/03/23 08:37:54;;;;;;;;;;;691.50;640.00;;;;;;5092781;28;19913;-81
2022/03/23 08:40:20;;;;;;;;;;;716.80;614.40;;;;;;5092750;28;19915;-78
2022/03/23 08:42:46;;;;;;;;;;;717.50;588.80;;;;;;5092401;28;20423;-77
2022/03/23 08:45:12;;;;;;;;;;;742.90;614.40;;;;;;5092570;28;19995;-77
2022/03/23 08:47:39;;;;;;;;;;;768.10;563.20;;;;;;5092553;28;19934;-76
2022/03/23 08:50:08;;;;;;;;;;;768.60;537.60;;;;;;5092469;28;19909;-77
2022/03/23 08:52:34;;;;;;;;;;;794.10;537.60;;;;;;5093639;28;20349;-76
2022/03/23 08:55:07;;;;;;;;;;;819.40;512.00;;;;;;5092363;28;19994;-76
2022/03/23 08:57:33;;;;;;;;;;;844.80;512.00;;;;;;5093721;28;19916;-80
2022/03/23 08:59:58;;;;;;;;;;;845.50;486.40;;;;;;5091622;28;19912;-76
2022/03/23 09:02:24;;;;;;;;;;;870.80;460.80;;;;;;5091615;28;19935;-78
2022/03/23 09:04:50;;;;;;;;;;;896.00;435.20;;;;;;5091886;28;19907;-76
2022/03/23 09:07:15;;;;;;;;;;;896.00;435.20;;;;;;5091918;28;19908;-75
2022/03/23 09:09:41;;;;;;;;;;;896.50;435.20;;;;;;5091982;28;19909;-76
2022/03/23 09:12:07;;;;;;;;;;;921.70;460.80;;;;;;5091854;28;19963;-76
2022/03/23 09:14:33;;;;;;;;;;;922.10;435.20;;;;;;5091755;28;20002;-76
2022/03/23 09:16:58;;;;;;;;;;;922.00;409.60;;;;;;5091632;28;19908;-75
2022/03/23 09:19:24;;;;;;;;;;;947.50;384.00;;;;;;5093449;28;19916;-77
2022/03/23 09:21:50;;;;;;;;;;;972.90;409.60;;;;;;5095697;28;19952;-77
2022/03/23 09:24:19;;;;;;;;;;;973.50;384.00;;;;;;5095789;28;19908;-76
2022/03/23 09:26:44;;;;;;;;;;;973.60;358.40;;;;;;5096934;28;19915;-77
2022/03/23 09:29:10;;;;;;;;;;;973.70;384.00;;;;;;5099340;28;19911;-76
2022/03/23 09:42:29;;;;;;;23.75;13.30;;;1024.10;358.40;;;;;;5130238;27;20726;-82
2022/03/23 09:44:56;;;;;;;21.23;12.40;;;1049.90;358.40;;;;;;5126497;28;20378;-81
2022/03/23 09:47:22;;;;;;;24.83;14.40;;;1050.40;358.40;;;;;;5129389;28;20381;-79
2022/03/23 09:49:48;;;;;;;25.80;15.13;;;1075.60;358.40;;;;;;5129379;28;20370;-81
2022/03/23 09:52:14;;;;;;;35.43;12.63;;;1100.90;384.00;;;;;;5128852;28;20374;-79
2022/03/23 09:54:42;;;;;;;38.60;12.30;;;1101.30;384.00;;;;;;5130339;28;20372;-79
2022/03/23 09:57:08;;;;;;;21.42;11.50;;;1101.50;384.00;;;;;;5128994;28;20427;-79
2022/03/23 09:59:34;;;;;;;23.53;11.50;;;1101.40;384.00;;;;;;5129013;28;20370;-80
2022/03/23 10:02:03;;;;;;;22.73;11.98;;;1101.00;384.00;;;;;;5128976;28;20784;-83
2022/03/23 10:05:06;;;;;;;26.30;13.65;;;1024.10;332.80;;;;;;5130196;27;20362;-78
2022/03/23 10:07:42;;;;;;;24.35;11.25;;;921.70;384.00;;;;;;5130281;28;20377;-79
2022/03/23 10:10:52;;;;;;;32.78;16.23;;;819.70;435.20;;;;;;5128780;28;20893;-81
2022/03/23 10:13:33;;;;;;;;;;;768.30;460.80;;;;;;5130106;28;20429;-79
2022/03/23 10:16:17;;;;;;;;;;;742.50;486.40;;;;;;5128267;28;19908;-75
2022/03/23 10:18:53;;;;;;;;;;;692.10;486.40;;;;;;5130113;28;19949;-76
2022/03/23 10:21:20;;;;;;;;;;;691.50;512.00;;;;;;5130540;27;19904;-78
2022/03/23 10:24:00;;;;;;;;;;;666.10;537.60;;;;;;5130973;27;19910;-82
2022/03/23 10:26:27;;;;;;;;;;;665.90;563.20;;;;;;5129307;28;19915;-78
2022/03/23 10:28:52;;;;;;;;;;;640.70;512.00;;;;;;5129787;28;19910;-78
2022/03/23 10:31:19;;;;;;;;;;;640.20;537.60;;;;;;5129794;28;19911;-79
2022/03/23 10:33:55;;;;;;;;;;;615.30;563.20;;;;;;5130667;27;19903;-79
2022/03/23 10:36:21;;;;;;;;;;;615.30;563.20;;;;;;5130162;27;19910;-76
2022/03/23 10:38:47;;;;;;;;;;;615.30;588.80;;;;;;5130555;27;20373;-80
2022/03/23 10:41:23;;;;;;;;;;;615.30;563.20;;;;;;5128650;28;19915;-79
2022/03/23 10:43:49;;;;;;;;;;;615.10;563.20;;;;;;5117011;28;20007;-79
2022/03/23 10:46:14;;;;;;;;;;;615.10;563.20;;;;;;5117021;28;19942;-80
2022/03/23 10:49:01;;;;;;;;;;;615.10;563.20;;;;;;5115683;28;20304;-76
2022/03/23 10:53:52;;;;;;;;;;;615.00;588.80;;;;;;5098573;28;19990;-78
2022/03/23 10:56:27;;;;;;;;;;;614.90;537.60;;;;;;5115181;28;19904;-78
2022/03/23 10:59:13;;;;;;;;;;;614.80;563.20;;;;;;5116056;28;19910;-75
2022/03/23 11:01:57;;;;;;;;;;;614.60;563.20;;;;;;5115638;28;19903;-75
2022/03/23 11:04:30;;;;;;;;;;;614.50;588.80;;;;;;5116918;28;19962;-76
2022/03/23 11:06:56;;;;;;;;;;;614.50;563.20;;;;;;5115596;28;19954;-76
2022/03/23 11:18:09;;;;;;;;;;;589.60;614.40;;;;;;5114847;28;19915;-77
2022/03/23 11:20:38;;;;;;;;;;;589.50;614.40;;;;;;5116678;28;20268;-87
2022/03/23 11:23:18;;;;;;;;;;;589.50;588.80;;;;;;5116931;28;19907;-83
2022/03/23 11:25:48;;;;;;;;;;;589.30;614.40;;;;;;5115627;28;19904;-83
2022/03/23 11:28:15;;;;;;;;;;;589.20;588.80;;;;;;5115668;28;19911;-83
2022/03/23 11:30:41;;;;;;;;;;;589.20;588.80;;;;;;5113885;27;19912;-82
2022/03/23 11:33:07;;;;;;;;;;;589.10;588.80;;;;;;5114982;28;20605;-83
2022/03/23 11:35:34;;;;;;;;;;;589.10;588.80;;;;;;5115090;28;19903;-83
2022/03/23 11:38:00;;;;;;;;;;;589.20;614.40;;;;;;5115097;28;19903;-82
2022/03/23 11:40:26;;;;;;;;;;;589.10;614.40;;;;;;5115018;28;20018;-82
2022/03/23 11:42:52;;;;;;;;;;;589.10;614.40;;;;;;5115028;28;19939;-80
2022/03/23 11:45:18;;;;;;;;;;;589.00;614.40;;;;;;5115195;28;19903;-82
2022/03/23 11:47:50;;;;;;;;;;;589.00;640.00;;;;;;5114327;28;20522;-83
2022/03/23 11:50:26;;;;;;;;;;;588.80;640.00;;;;;;5115778;28;19923;-81
2022/03/23 11:52:56;;;;;;;;;;;588.80;614.40;;;;;;5115685;28;19970;-81
2022/03/23 11:55:40;;;;;;;;;;;588.90;640.00;;;;;;5115486;28;19907;-83
2022/03/23 11:58:16;;;;;;;;;;;564.10;614.40;;;;;;5115043;28;19942;-81
2022/03/23 12:00:43;;;;;;;;;;;588.80;665.60;;;;;;5115066;28;19904;-86
2022/03/23 12:03:09;;;;;;;;;;;588.80;614.40;;;;;;5114963;28;19992;-87
2022/03/23 12:05:36;;;;;;;;;;;588.80;614.40;;;;;;5116212;28;20316;-82
2022/03/23 12:08:02;;;;;;;;;;;564.00;588.80;;;;;;5114444;28;19904;-81
2022/03/23 12:10:31;;;;;;;;;;;589.00;614.40;;;;;;5114834;28;19950;-85
2022/03/23 12:13:12;;;;;;;;;;;589.00;588.80;;;;;;5114631;28;19958;-82
2022/03/23 12:15:54;;;;;;;;;;;588.90;588.80;;;;;;5114583;28;20002;-80
2022/03/23 12:18:37;;;;;;;;;;;589.00;614.40;;;;;;5115533;28;19904;-79
2022/03/23 12:21:03;;;;;;;;;;;589.10;588.80;;;;;;5114672;28;20002;-81
2022/03/23 12:23:46;;;;;;;;;;;589.00;588.80;;;;;;5113767;28;19966;-84
2022/03/23 12:26:16;;;;;;;;;;;589.10;588.80;;;;;;5115376;28;19907;-80
2022/03/23 12:28:50;;;;;;;;;;;589.10;588.80;;;;;;5115081;28;19950;-83
2022/03/23 12:31:16;;;;;;;;;;;589.20;588.80;;;;;;5114266;28;20363;-81
2022/03/23 12:33:59;;;;;;;;;;;589.30;588.80;;;;;;5114575;28;19904;-78
2022/03/23 12:36:55;;;;;;;;;;;589.30;588.80;;;;;;5115180;28;20002;-79
2022/03/23 12:39:20;;;;;;;;;;;589.20;588.80;;;;;;5114728;28;19953;-79
2022/03/23 12:41:46;;;;;;;;;;;589.40;588.80;;;;;;5113298;28;19919;-78
2022/03/23 12:44:12;;;;;;;;;;;589.50;588.80;;;;;;5113808;28;19950;-80
2022/03/23 12:46:42;;;;;;;;;;;589.50;588.80;;;;;;5113557;28;19911;-81
2022/03/23 13:00:25;;;;;;;;;;;614.60;563.20;;;;;;5115135;28;19910;-85
2022/03/23 13:03:06;;;;;;;;;;;614.80;588.80;;;;;;5112952;28;19908;-78
2022/03/23 13:05:36;;;;;;;;;;;666.00;563.20;;;;;;5114317;28;19903;-82
2022/03/23 13:08:22;;;;;;;;;;;870.60;435.20;;;;;;5112423;28;19903;-84
2022/03/23 13:10:58;;;;;;;;;;;1024.40;332.80;;;;;;5113204;28;20366;-81
2022/03/23 13:13:24;;;;;;;;;;;1126.70;409.60;;;;;;5112557;28;19950;-83
2022/03/23 13:15:50;;;;;;;12.82;4.90;;;1203.50;435.20;;;;;;5113002;28;19904;-79
2022/03/23 13:18:16;;;;;;;14.43;6.85;;;1254.90;486.40;;;;;;5112646;28;20020;-79
2022/03/23 13:20:49;;;;;;;14.43;7.03;;;1255.20;486.40;;;;;;5111084;28;20379;-79
2022/03/23 13:23:17;;;;;;;;;;;1306.10;486.40;;;;;;5113146;28;20032;-80
2022/03/23 13:25:44;;;;;;;;;;;1331.50;512.00;;;;;;5112881;28;19938;-80
2022/03/23 13:28:13;;;;;;;;;;;1356.80;537.60;;;;;;5113402;28;19904;-83
2022/03/23 13:30:40;;;;;;;;;;;1357.30;537.60;;;;;;5113069;28;19911;-81
2022/03/23 13:33:15;;;;;;;;;;;1382.50;563.20;;;;;;5113144;28;19904;-78
2022/03/23 13:35:42;;;;;;;;;;;1382.90;563.20;;;;;;5113203;28;19904;-78
2022/03/23 13:38:08;;;;;;;;;;;1408.10;563.20;;;;;;5113197;28;19926;-78
2022/03/23 13:43:26;;;;;;;;;;;1408.60;563.20;;;;;;5114872;28;19933;-79
2022/03/23 13:45:53;;;;;;;;;;;1433.60;588.80;;;;;;5114370;28;20359;-81
2022/03/23 13:48:19;;;;;;;;;;;1433.60;588.80;;;;;;5113095;28;19904;-79
2022/03/23 13:50:49;;;;;;;;;;;1433.60;588.80;;;;;;5114436;28;19912;-80
2022/03/23 13:53:15;;;;;;;;;;;1408.80;563.20;;;;;;5112994;28;19904;-79
2022/03/23 13:55:41;;;;;;;;;;;1433.60;588.80;;;;;;5113083;28;19904;-78
2022/03/23 13:58:08;;;;;;;;;;;1433.80;588.80;;;;;;5114153;28;19908;-81
2022/03/23 14:00:35;;;;;;;;;;;1433.60;588.80;;;;;;5113078;28;19903;-79
2022/03/23 14:03:02;;;;;;;;;;;1408.10;563.20;;;;;;5114280;28;19904;-78
2022/03/23 14:05:32;;;;;;;;;;;1408.30;563.20;;;;;;5112580;28;19969;-78
2022/03/23 14:07:58;;;;;;;;;;;1255.00;486.40;;;;;;5112895;28;19911;-78
2022/03/23 14:10:34;;;;;;;;;;;1101.50;384.00;;;;;;5112795;28;19912;-78
2022/03/23 14:13:03;;;;;;;;;;;998.90;332.80;;;;;;5112960;28;20347;-79
2022/03/23 14:15:36;;;;;;;;;;;922.20;307.20;;;;;;5112897;28;19904;-79
2022/03/23 14:18:03;;;;;;;;;;;870.80;332.80;;;;;;5115319;28;19904;-79
2022/03/23 14:20:29;;;;;;;;;;;819.90;358.40;;;;;;5116811;28;20325;-78
2022/03/23 14:22:55;;;;;;;;;;;794.00;409.60;;;;;;5117684;28;19907;-82
2022/03/23 14:25:21;;;;;;;;;;;768.20;409.60;;;;;;5116814;28;19935;-80
2022/03/23 14:27:49;;;;;;;;;;;743.00;460.80;;;;;;5117971;28;19954;-80
2022/03/23 14:30:15;;;;;;;;;;;742.60;460.80;;;;;;5116182;28;19979;-80
2022/03/23 14:32:50;;;;;;;;;;;717.50;435.20;;;;;;5116705;28;20275;-82
2022/03/23 14:35:20;;;;;;;;;;;717.20;460.80;;;;;;5116613;28;19910;-81
2022/03/23 14:37:47;;;;;;;;;;;716.80;460.80;;;;;;5115701;28;20405;-78
2022/03/23 14:40:22;;;;;;;;;;;691.80;460.80;;;;;;5113951;28;19956;-78
2022/03/23 14:42:48;;;;;;;;;;;691.50;460.80;;;;;;5115411;28;19965;-78
2022/03/23 14:45:28;;;;;;;;;;;691.20;460.80;;;;;;5114826;28;20244;-80
2022/03/23 14:47:54;;;;;;;;;;;666.30;486.40;;;;;;5117495;28;19904;-81
2022/03/23 14:50:19;;;;;;;;;;;665.80;486.40;;;;;;5115774;28;19911;-78
2022/03/23 14:52:45;;;;;;;;;;;665.60;512.00;;;;;;5117574;28;19911;-80
2022/03/23 14:55:11;;;;;;;;;;;640.70;486.40;;;;;;5115908;28;20360;-83
2022/03/23 14:57:36;;;;;;;;;;;640.50;486.40;;;;;;5117061;28;19908;-84
2022/03/23 15:00:05;;;;;;;;;;;640.30;512.00;;;;;;5117355;28;20413;-78
2022/03/23 15:02:32;;;;;;;;;;;640.00;486.40;;;;;;5115798;28;19911;-78
2022/03/23 15:04:58;;;;;;;;;;;615.30;512.00;;;;;;5115758;28;19910;-79
2022/03/23 15:15:56;;;;;;;;;;;614.50;563.20;;;;;;5059887;28;19909;-82
2022/03/23 15:18:21;;;;;;;;;;;614.40;563.20;;;;;;5037463;28;19911;-82
2022/03/23 15:20:47;;;;;;;16.63;6.30;;;589.60;563.20;;;;;;5054036;28;19909;-82
2022/03/23 15:23:13;;;;;;;10.27;4.78;;;589.40;563.20;;;;;;5053510;28;20099;-81
2022/03/23 15:25:39;;;;;;;15.50;6.63;;;589.20;563.20;;;;;;5056465;28;20448;-80